sensor_id;sensor_type;location;lat;lon;timestamp;P1;durP1;ratioP1;P2;durP2;ratioP2
2388;SDS011;1205;47.984;7.668;2024-03-06T00:01:35;1.73;;;1.73;;
2388;SDS011;1205;47.984;7.668;2024-03-06T00:04:02;4.67;;;1.40;;
2388;SDS011;1205;47.984;7.668;2024-03-06T00:06:28;2.50;;;1.63;;
2388;SDS011;1205;47.984;7.668;2024-03-06T00:08:55;1.17;;;1.17;;
2388;SDS011;1205;47.984;7.668;2024-03-06T00:11:21;1.87;;;1.10;;
2388;SDS011;1205;47.984;7.668;2024-03-06T00:13:46;1.07;;;1.07;;
2388;SDS011;1205;47.984;7.668;2024-03-06T00:16:12;1.53;;;1.27;;
2388;SDS011;1205;47.984;7.668;2024-03-06T00:18:38;2.80;;;1.30;;
2388;SDS011;1205;47.984;7.668;2024-03-06T00:21:05;1.33;;;1.20;;
2388;SDS011;1205;47.984;7.668;2024-03-06T00:23:31;1.83;;;1.10;;
2388;SDS011;1205;47.984;7.668;2024-03-06T00:25:57;4.10;;;1.40;;
2388;SDS011;1205;47.984;7.668;2024-03-06T00:28:22;1.00;;;1.00;;
2388;SDS011;1205;47.984;7.668;2024-03-06T00:30:48;1.10;;;1.10;;
2388;SDS011;1205;47.984;7.668;2024-03-06T00:33:13;3.03;;;1.20;;
2388;SDS011;1205;47.984;7.668;2024-03-06T00:35:39;1.50;;;1.10;;
2388;SDS011;1205;47.984;7.668;2024-03-06T00:38:04;2.47;;;1.20;;
2388;SDS011;1205;47.984;7.668;2024-03-06T00:40:31;1.20;;;1.20;;
2388;SDS011;1205;47.984;7.668;2024-03-06T00:42:57;1.70;;;1.00;;
2388;SDS011;1205;47.984;7.668;2024-03-06T00:45:23;1.27;;;1.17;;
2388;SDS011;1205;47.984;7.668;2024-03-06T00:47:49;1.00;;;1.00;;
2388;SDS011;1205;47.984;7.668;2024-03-06T00:50:14;2.20;;;1.10;;
2388;SDS011;1205;47.984;7.668;2024-03-06T00:52:41;1.20;;;1.10;;
2388;SDS011;1205;47.984;7.668;2024-03-06T00:55:10;1.00;;;0.90;;
2388;SDS011;1205;47.984;7.668;2024-03-06T00:57:36;1.07;;;1.00;;
2388;SDS011;1205;47.984;7.668;2024-03-06T01:00:04;1.10;;;1.10;;
2388;SDS011;1205;47.984;7.668;2024-03-06T01:02:35;0.83;;;0.83;;
2388;SDS011;1205;47.984;7.668;2024-03-06T01:05:04;1.67;;;1.10;;
2388;SDS011;1205;47.984;7.668;2024-03-06T01:07:30;2.83;;;1.30;;
2388;SDS011;1205;47.984;7.668;2024-03-06T01:09:56;1.30;;;1.20;;
2388;SDS011;1205;47.984;7.668;2024-03-06T01:12:25;1.47;;;1.10;;
2388;SDS011;1205;47.984;7.668;2024-03-06T01:14:50;1.40;;;1.30;;
2388;SDS011;1205;47.984;7.668;2024-03-06T01:17:16;1.40;;;1.30;;
2388;SDS011;1205;47.984;7.668;2024-03-06T01:19:42;1.90;;;0.97;;
2388;SDS011;1205;47.984;7.668;2024-03-06T01:22:10;1.00;;;1.00;;
2388;SDS011;1205;47.984;7.668;2024-03-06T01:24:38;1.10;;;1.10;;
2388;SDS011;1205;47.984;7.668;2024-03-06T01:27:04;1.57;;;1.20;;
2388;SDS011;1205;47.984;7.668;2024-03-06T01:29:29;1.00;;;1.00;;
2388;SDS011;1205;47.984;7.668;2024-03-06T01:31:55;1.17;;;1.17;;
2388;SDS011;1205;47.984;7.668;2024-03-06T01:34:20;1.00;;;1.00;;
2388;SDS011;1205;47.984;7.668;2024-03-06T01:36:47;1.07;;;1.03;;
2388;SDS011;1205;47.984;7.668;2024-03-06T01:39:12;1.43;;;1.20;;
2388;SDS011;1205;47.984;7.668;2024-03-06T01:41:44;0.90;;;0.90;;
2388;SDS011;1205;47.984;7.668;2024-03-06T01:44:17;1.10;;;1.10;;
2388;SDS011;1205;47.984;7.668;2024-03-06T01:46:43;2.90;;;1.20;;
2388;SDS011;1205;47.984;7.668;2024-03-06T01:49:09;1.20;;;1.10;;
2388;SDS011;1205;47.984;7.668;2024-03-06T01:51:36;1.70;;;1.57;;
2388;SDS011;1205;47.984;7.668;2024-03-06T01:54:02;2.60;;;1.60;;
2388;SDS011;1205;47.984;7.668;2024-03-06T01:56:29;1.23;;;1.20;;
2388;SDS011;1205;47.984;7.668;2024-03-06T01:58:56;1.10;;;1.10;;
2388;SDS011;1205;47.984;7.668;2024-03-06T02:01:23;1.60;;;1.60;;
2388;SDS011;1205;47.984;7.668;2024-03-06T02:03:49;2.47;;;1.10;;
2388;SDS011;1205;47.984;7.668;2024-03-06T02:06:15;1.27;;;1.27;;
2388;SDS011;1205;47.984;7.668;2024-03-06T02:08:44;1.40;;;1.30;;
2388;SDS011;1205;47.984;7.668;2024-03-06T02:11:10;2.00;;;1.00;;
2388;SDS011;1205;47.984;7.668;2024-03-06T02:13:36;1.50;;;1.40;;
2388;SDS011;1205;47.984;7.668;2024-03-06T02:16:03;1.23;;;1.23;;
2388;SDS011;1205;47.984;7.668;2024-03-06T02:18:29;2.83;;;1.33;;
2388;SDS011;1205;47.984;7.668;2024-03-06T02:20:55;1.17;;;1.17;;
2388;SDS011;1205;47.984;7.668;2024-03-06T02:23:20;1.97;;;1.70;;
2388;SDS011;1205;47.984;7.668;2024-03-06T02:25:47;1.47;;;1.27;;
2388;SDS011;1205;47.984;7.668;2024-03-06T02:28:13;1.50;;;1.10;;
2388;SDS011;1205;47.984;7.668;2024-03-06T02:30:39;3.60;;;1.37;;
2388;SDS011;1205;47.984;7.668;2024-03-06T02:33:05;1.40;;;1.40;;
2388;SDS011;1205;47.984;7.668;2024-03-06T02:35:37;1.60;;;1.50;;
2388;SDS011;1205;47.984;7.668;2024-03-06T02:38:05;1.70;;;1.40;;
2388;SDS011;1205;47.984;7.668;2024-03-06T02:40:31;1.90;;;1.43;;
2388;SDS011;1205;47.984;7.668;2024-03-06T02:42:57;1.90;;;1.20;;
2388;SDS011;1205;47.984;7.668;2024-03-06T02:45:22;1.40;;;1.30;;
2388;SDS011;1205;47.984;7.668;2024-03-06T02:47:50;2.63;;;1.30;;
2388;SDS011;1205;47.984;7.668;2024-03-06T02:50:16;1.10;;;1.10;;
2388;SDS011;1205;47.984;7.668;2024-03-06T02:52:42;1.23;;;1.23;;
2388;SDS011;1205;47.984;7.668;2024-03-06T02:55:08;1.43;;;1.33;;
2388;SDS011;1205;47.984;7.668;2024-03-06T02:57:34;1.60;;;1.50;;
2388;SDS011;1205;47.984;7.668;2024-03-06T03:00:00;1.70;;;1.60;;
2388;SDS011;1205;47.984;7.668;2024-03-06T03:02:25;1.17;;;1.13;;
2388;SDS011;1205;47.984;7.668;2024-03-06T03:04:51;1.40;;;1.30;;
2388;SDS011;1205;47.984;7.668;2024-03-06T03:07:19;1.30;;;1.30;;
2388;SDS011;1205;47.984;7.668;2024-03-06T03:09:45;5.80;;;1.60;;
2388;SDS011;1205;47.984;7.668;2024-03-06T03:12:12;1.40;;;1.40;;
2388;SDS011;1205;47.984;7.668;2024-03-06T03:14:39;1.50;;;1.40;;
2388;SDS011;1205;47.984;7.668;2024-03-06T03:17:05;1.27;;;1.17;;
2388;SDS011;1205;47.984;7.668;2024-03-06T03:19:30;1.50;;;1.40;;
2388;SDS011;1205;47.984;7.668;2024-03-06T03:21:56;2.63;;;1.40;;
2388;SDS011;1205;47.984;7.668;2024-03-06T03:24:22;1.30;;;1.30;;
2388;SDS011;1205;47.984;7.668;2024-03-06T03:26:50;2.10;;;1.30;;
2388;SDS011;1205;47.984;7.668;2024-03-06T03:29:16;1.60;;;1.50;;
2388;SDS011;1205;47.984;7.668;2024-03-06T03:31:42;4.03;;;2.20;;
2388;SDS011;1205;47.984;7.668;2024-03-06T03:34:08;2.17;;;1.23;;
2388;SDS011;1205;47.984;7.668;2024-03-06T03:36:33;1.20;;;1.20;;
2388;SDS011;1205;47.984;7.668;2024-03-06T03:38:59;1.73;;;1.63;;
2388;SDS011;1205;47.984;7.668;2024-03-06T03:41:25;1.60;;;1.50;;
2388;SDS011;1205;47.984;7.668;2024-03-06T03:43:51;1.50;;;1.40;;
2388;SDS011;1205;47.984;7.668;2024-03-06T03:46:16;1.23;;;1.23;;
2388;SDS011;1205;47.984;7.668;2024-03-06T03:48:42;1.37;;;1.30;;
2388;SDS011;1205;47.984;7.668;2024-03-06T03:51:08;2.00;;;1.47;;
2388;SDS011;1205;47.984;7.668;2024-03-06T03:53:34;3.37;;;1.60;;
2388;SDS011;1205;47.984;7.668;2024-03-06T03:56:00;2.27;;;2.00;;
2388;SDS011;1205;47.984;7.668;2024-03-06T03:58:25;1.53;;;1.43;;
2388;SDS011;1205;47.984;7.668;2024-03-06T04:00:51;2.27;;;2.03;;
2388;SDS011;1205;47.984;7.668;2024-03-06T04:03:20;4.27;;;1.70;;
2388;SDS011;1205;47.984;7.668;2024-03-06T04:05:47;2.17;;;1.60;;
2388;SDS011;1205;47.984;7.668;2024-03-06T04:08:13;1.60;;;1.50;;
2388;SDS011;1205;47.984;7.668;2024-03-06T04:10:39;2.37;;;2.27;;
2388;SDS011;1205;47.984;7.668;2024-03-06T04:13:04;4.43;;;1.67;;
2388;SDS011;1205;47.984;7.668;2024-03-06T04:15:31;2.10;;;1.90;;
2388;SDS011;1205;47.984;7.668;2024-03-06T04:17:57;1.60;;;1.50;;
2388;SDS011;1205;47.984;7.668;2024-03-06T04:20:23;1.67;;;1.60;;
2388;SDS011;1205;47.984;7.668;2024-03-06T04:22:48;3.03;;;2.10;;
2388;SDS011;1205;47.984;7.668;2024-03-06T04:25:16;2.50;;;1.87;;
2388;SDS011;1205;47.984;7.668;2024-03-06T04:27:42;2.13;;;2.03;;
2388;SDS011;1205;47.984;7.668;2024-03-06T04:30:08;1.70;;;1.60;;
2388;SDS011;1205;47.984;7.668;2024-03-06T04:32:34;2.87;;;1.93;;
2388;SDS011;1205;47.984;7.668;2024-03-06T04:34:59;2.73;;;2.53;;
2388;SDS011;1205;47.984;7.668;2024-03-06T04:37:25;2.60;;;2.40;;
2388;SDS011;1205;47.984;7.668;2024-03-06T04:39:51;2.87;;;2.67;;
2388;SDS011;1205;47.984;7.668;2024-03-06T04:42:17;3.47;;;2.20;;
2388;SDS011;1205;47.984;7.668;2024-03-06T04:44:45;2.20;;;2.10;;
2388;SDS011;1205;47.984;7.668;2024-03-06T04:47:10;2.47;;;2.37;;
2388;SDS011;1205;47.984;7.668;2024-03-06T04:49:36;2.53;;;2.43;;
2388;SDS011;1205;47.984;7.668;2024-03-06T04:52:02;2.93;;;2.50;;
2388;SDS011;1205;47.984;7.668;2024-03-06T04:54:28;2.80;;;2.60;;
2388;SDS011;1205;47.984;7.668;2024-03-06T04:56:54;2.77;;;2.40;;
2388;SDS011;1205;47.984;7.668;2024-03-06T04:59:20;3.07;;;2.83;;
2388;SDS011;1205;47.984;7.668;2024-03-06T05:01:45;5.40;;;3.00;;
2388;SDS011;1205;47.984;7.668;2024-03-06T05:04:11;3.27;;;3.07;;
2388;SDS011;1205;47.984;7.668;2024-03-06T05:06:37;2.83;;;2.63;;
2388;SDS011;1205;47.984;7.668;2024-03-06T05:09:03;4.73;;;2.67;;
2388;SDS011;1205;47.984;7.668;2024-03-06T05:11:37;3.10;;;2.80;;
2388;SDS011;1205;47.984;7.668;2024-03-06T05:14:03;4.60;;;2.90;;
2388;SDS011;1205;47.984;7.668;2024-03-06T05:16:29;3.57;;;3.03;;
2388;SDS011;1205;47.984;7.668;2024-03-06T05:18:54;3.40;;;3.00;;
2388;SDS011;1205;47.984;7.668;2024-03-06T05:21:21;3.10;;;2.90;;
2388;SDS011;1205;47.984;7.668;2024-03-06T05:23:49;3.70;;;2.80;;
2388;SDS011;1205;47.984;7.668;2024-03-06T05:26:15;2.73;;;2.53;;
2388;SDS011;1205;47.984;7.668;2024-03-06T05:28:41;3.10;;;2.80;;
2388;SDS011;1205;47.984;7.668;2024-03-06T05:31:15;3.73;;;3.40;;
2388;SDS011;1205;47.984;7.668;2024-03-06T05:33:48;3.27;;;3.03;;
2388;SDS011;1205;47.984;7.668;2024-03-06T05:36:14;4.90;;;3.23;;
2388;SDS011;1205;47.984;7.668;2024-03-06T05:38:40;7.27;;;3.90;;
2388;SDS011;1205;47.984;7.668;2024-03-06T05:41:06;4.10;;;3.70;;
2388;SDS011;1205;47.984;7.668;2024-03-06T05:43:33;4.53;;;3.43;;
2388;SDS011;1205;47.984;7.668;2024-03-06T05:45:59;4.40;;;3.20;;
2388;SDS011;1205;47.984;7.668;2024-03-06T05:48:25;3.10;;;2.90;;
2388;SDS011;1205;47.984;7.668;2024-03-06T05:50:51;3.87;;;3.50;;
2388;SDS011;1205;47.984;7.668;2024-03-06T05:53:17;5.70;;;3.90;;
2388;SDS011;1205;47.984;7.668;2024-03-06T05:55:43;4.37;;;3.87;;
2388;SDS011;1205;47.984;7.668;2024-03-06T05:58:08;5.00;;;4.37;;
2388;SDS011;1205;47.984;7.668;2024-03-06T06:00:34;9.20;;;6.83;;
2388;SDS011;1205;47.984;7.668;2024-03-06T06:03:00;7.00;;;6.27;;
2388;SDS011;1205;47.984;7.668;2024-03-06T06:05:25;7.23;;;5.37;;
2388;SDS011;1205;47.984;7.668;2024-03-06T06:07:51;13.77;;;5.83;;
2388;SDS011;1205;47.984;7.668;2024-03-06T06:10:17;7.67;;;5.20;;
2388;SDS011;1205;47.984;7.668;2024-03-06T06:12:42;6.07;;;4.90;;
2388;SDS011;1205;47.984;7.668;2024-03-06T06:15:08;5.43;;;4.40;;
2388;SDS011;1205;47.984;7.668;2024-03-06T06:17:34;5.23;;;4.80;;
2388;SDS011;1205;47.984;7.668;2024-03-06T06:20:00;4.33;;;4.03;;
2388;SDS011;1205;47.984;7.668;2024-03-06T06:22:28;5.60;;;5.10;;
2388;SDS011;1205;47.984;7.668;2024-03-06T06:24:54;8.50;;;4.70;;
2388;SDS011;1205;47.984;7.668;2024-03-06T06:27:20;11.40;;;4.53;;
2388;SDS011;1205;47.984;7.668;2024-03-06T06:29:46;6.30;;;4.90;;
2388;SDS011;1205;47.984;7.668;2024-03-06T06:32:11;4.90;;;4.50;;
2388;SDS011;1205;47.984;7.668;2024-03-06T06:34:37;5.43;;;5.00;;
2388;SDS011;1205;47.984;7.668;2024-03-06T06:37:03;7.70;;;4.73;;
2388;SDS011;1205;47.984;7.668;2024-03-06T06:39:28;6.20;;;4.50;;
2388;SDS011;1205;47.984;7.668;2024-03-06T06:41:54;4.97;;;4.57;;
2388;SDS011;1205;47.984;7.668;2024-03-06T06:44:19;5.90;;;5.40;;
2388;SDS011;1205;47.984;7.668;2024-03-06T06:46:45;4.63;;;4.17;;
2388;SDS011;1205;47.984;7.668;2024-03-06T06:49:10;5.80;;;4.00;;
2388;SDS011;1205;47.984;7.668;2024-03-06T06:51:36;6.30;;;3.90;;
2388;SDS011;1205;47.984;7.668;2024-03-06T06:54:02;5.83;;;4.37;;
2388;SDS011;1205;47.984;7.668;2024-03-06T06:56:29;4.60;;;4.20;;
2388;SDS011;1205;47.984;7.668;2024-03-06T06:58:54;5.47;;;4.97;;
2388;SDS011;1205;47.984;7.668;2024-03-06T07:01:21;4.97;;;4.60;;
2388;SDS011;1205;47.984;7.668;2024-03-06T07:03:47;4.17;;;3.77;;
2388;SDS011;1205;47.984;7.668;2024-03-06T07:06:12;4.90;;;4.50;;
2388;SDS011;1205;47.984;7.668;2024-03-06T07:08:38;4.70;;;4.30;;
2388;SDS011;1205;47.984;7.668;2024-03-06T07:11:04;4.77;;;4.10;;
2388;SDS011;1205;47.984;7.668;2024-03-06T07:13:30;5.63;;;4.20;;
2388;SDS011;1205;47.984;7.668;2024-03-06T07:15:56;6.23;;;3.80;;
2388;SDS011;1205;47.984;7.668;2024-03-06T07:18:21;4.33;;;3.93;;
2388;SDS011;1205;47.984;7.668;2024-03-06T07:20:47;7.10;;;4.40;;
2388;SDS011;1205;47.984;7.668;2024-03-06T07:23:12;5.53;;;5.03;;
2388;SDS011;1205;47.984;7.668;2024-03-06T07:25:38;4.50;;;4.20;;
2388;SDS011;1205;47.984;7.668;2024-03-06T07:28:04;4.73;;;4.30;;
2388;SDS011;1205;47.984;7.668;2024-03-06T07:30:30;4.93;;;4.10;;
2388;SDS011;1205;47.984;7.668;2024-03-06T07:32:56;4.60;;;4.20;;
2388;SDS011;1205;47.984;7.668;2024-03-06T07:35:22;5.67;;;3.80;;
2388;SDS011;1205;47.984;7.668;2024-03-06T07:37:48;3.90;;;3.70;;
2388;SDS011;1205;47.984;7.668;2024-03-06T07:40:14;4.77;;;4.17;;
2388;SDS011;1205;47.984;7.668;2024-03-06T07:42:39;5.40;;;4.13;;
2388;SDS011;1205;47.984;7.668;2024-03-06T07:45:05;5.83;;;3.80;;
2388;SDS011;1205;47.984;7.668;2024-03-06T07:47:34;4.70;;;4.40;;
2388;SDS011;1205;47.984;7.668;2024-03-06T07:50:02;7.80;;;7.00;;
2388;SDS011;1205;47.984;7.668;2024-03-06T07:52:30;5.20;;;4.70;;
2388;SDS011;1205;47.984;7.668;2024-03-06T07:54:56;5.97;;;5.37;;
2388;SDS011;1205;47.984;7.668;2024-03-06T07:57:23;5.43;;;4.20;;
2388;SDS011;1205;47.984;7.668;2024-03-06T07:59:48;5.03;;;4.63;;
2388;SDS011;1205;47.984;7.668;2024-03-06T08:02:16;4.83;;;4.30;;
2388;SDS011;1205;47.984;7.668;2024-03-06T08:04:42;8.90;;;4.17;;
2388;SDS011;1205;47.984;7.668;2024-03-06T08:07:08;4.53;;;4.23;;
2388;SDS011;1205;47.984;7.668;2024-03-06T08:09:33;5.40;;;4.63;;
2388;SDS011;1205;47.984;7.668;2024-03-06T08:11:59;7.90;;;4.83;;
2388;SDS011;1205;47.984;7.668;2024-03-06T08:14:24;4.90;;;4.40;;
2388;SDS011;1205;47.984;7.668;2024-03-06T08:16:50;6.57;;;5.80;;
2388;SDS011;1205;47.984;7.668;2024-03-06T08:19:16;7.67;;;6.97;;
2388;SDS011;1205;47.984;7.668;2024-03-06T08:21:41;6.30;;;5.43;;
2388;SDS011;1205;47.984;7.668;2024-03-06T08:24:07;4.60;;;4.20;;
2388;SDS011;1205;47.984;7.668;2024-03-06T08:26:32;3.60;;;3.30;;
2388;SDS011;1205;47.984;7.668;2024-03-06T08:28:58;7.70;;;3.00;;
2388;SDS011;1205;47.984;7.668;2024-03-06T08:31:24;4.63;;;3.50;;
2388;SDS011;1205;47.984;7.668;2024-03-06T08:33:50;3.00;;;2.80;;
2388;SDS011;1205;47.984;7.668;2024-03-06T08:36:18;4.30;;;4.03;;
2388;SDS011;1205;47.984;7.668;2024-03-06T08:38:46;6.10;;;4.17;;
2388;SDS011;1205;47.984;7.668;2024-03-06T08:41:11;4.80;;;4.40;;
2388;SDS011;1205;47.984;7.668;2024-03-06T08:43:37;3.57;;;3.23;;
2388;SDS011;1205;47.984;7.668;2024-03-06T08:46:03;3.17;;;2.97;;
2388;SDS011;1205;47.984;7.668;2024-03-06T08:48:29;3.33;;;2.60;;
2388;SDS011;1205;47.984;7.668;2024-03-06T08:50:55;2.63;;;2.53;;
2388;SDS011;1205;47.984;7.668;2024-03-06T08:53:20;3.63;;;3.40;;
2388;SDS011;1205;47.984;7.668;2024-03-06T08:55:46;2.87;;;2.77;;
2388;SDS011;1205;47.984;7.668;2024-03-06T08:58:12;3.03;;;2.90;;
2388;SDS011;1205;47.984;7.668;2024-03-06T09:00:39;1.90;;;1.80;;
2388;SDS011;1205;47.984;7.668;2024-03-06T09:03:04;1.50;;;1.50;;
2388;SDS011;1205;47.984;7.668;2024-03-06T09:05:30;1.00;;;1.00;;
2388;SDS011;1205;47.984;7.668;2024-03-06T09:07:56;1.20;;;1.20;;
2388;SDS011;1205;47.984;7.668;2024-03-06T09:10:22;1.23;;;1.10;;
2388;SDS011;1205;47.984;7.668;2024-03-06T09:12:48;1.70;;;1.20;;
2388;SDS011;1205;47.984;7.668;2024-03-06T09:15:14;0.90;;;0.90;;
2388;SDS011;1205;47.984;7.668;2024-03-06T09:17:40;1.30;;;1.20;;
2388;SDS011;1205;47.984;7.668;2024-03-06T09:20:06;1.40;;;1.40;;
2388;SDS011;1205;47.984;7.668;2024-03-06T09:22:39;2.40;;;1.50;;
2388;SDS011;1205;47.984;7.668;2024-03-06T09:25:05;1.17;;;1.17;;
2388;SDS011;1205;47.984;7.668;2024-03-06T09:27:31;1.47;;;1.47;;
2388;SDS011;1205;47.984;7.668;2024-03-06T09:29:57;2.03;;;1.20;;
2388;SDS011;1205;47.984;7.668;2024-03-06T09:32:23;1.33;;;1.23;;
2388;SDS011;1205;47.984;7.668;2024-03-06T09:34:51;1.80;;;1.70;;
2388;SDS011;1205;47.984;7.668;2024-03-06T09:37:17;2.00;;;1.60;;
2388;SDS011;1205;47.984;7.668;2024-03-06T09:39:43;1.30;;;1.30;;
2388;SDS011;1205;47.984;7.668;2024-03-06T09:42:12;1.43;;;1.40;;
2388;SDS011;1205;47.984;7.668;2024-03-06T09:44:38;1.87;;;1.77;;
2388;SDS011;1205;47.984;7.668;2024-03-06T09:47:04;1.30;;;1.30;;
2388;SDS011;1205;47.984;7.668;2024-03-06T09:49:32;1.17;;;1.17;;
2388;SDS011;1205;47.984;7.668;2024-03-06T09:51:59;1.47;;;1.33;;
2388;SDS011;1205;47.984;7.668;2024-03-06T09:54:26;2.00;;;1.90;;
2388;SDS011;1205;47.984;7.668;2024-03-06T09:56:52;2.20;;;2.10;;
2388;SDS011;1205;47.984;7.668;2024-03-06T09:59:20;5.53;;;3.50;;
2388;SDS011;1205;47.984;7.668;2024-03-06T10:04:24;2.63;;;2.47;;
2388;SDS011;1205;47.984;7.668;2024-03-06T10:06:54;1.77;;;1.67;;
2388;SDS011;1205;47.984;7.668;2024-03-06T10:09:23;2.03;;;1.93;;
2388;SDS011;1205;47.984;7.668;2024-03-06T10:11:50;2.53;;;2.43;;
2388;SDS011;1205;47.984;7.668;2024-03-06T10:14:18;3.40;;;2.03;;
2388;SDS011;1205;47.984;7.668;2024-03-06T10:16:57;2.77;;;2.57;;
2388;SDS011;1205;47.984;7.668;2024-03-06T10:19:25;2.60;;;2.20;;
2388;SDS011;1205;47.984;7.668;2024-03-06T10:21:55;6.03;;;2.97;;
2388;SDS011;1205;47.984;7.668;2024-03-06T10:24:23;2.73;;;2.17;;
2388;SDS011;1205;47.984;7.668;2024-03-06T10:26:49;2.77;;;2.40;;
2388;SDS011;1205;47.984;7.668;2024-03-06T10:29:17;3.43;;;2.50;;
2388;SDS011;1205;47.984;7.668;2024-03-06T10:31:50;3.27;;;2.20;;
2388;SDS011;1205;47.984;7.668;2024-03-06T10:34:17;2.50;;;2.17;;
2388;SDS011;1205;47.984;7.668;2024-03-06T10:36:43;5.80;;;1.80;;
2388;SDS011;1205;47.984;7.668;2024-03-06T10:39:10;1.90;;;1.80;;
2388;SDS011;1205;47.984;7.668;2024-03-06T10:41:39;3.50;;;2.00;;
2388;SDS011;1205;47.984;7.668;2024-03-06T10:44:07;2.50;;;2.30;;
2388;SDS011;1205;47.984;7.668;2024-03-06T10:46:43;2.60;;;2.50;;
2388;SDS011;1205;47.984;7.668;2024-03-06T10:49:12;3.47;;;2.60;;
2388;SDS011;1205;47.984;7.668;2024-03-06T10:51:40;5.13;;;2.63;;
2388;SDS011;1205;47.984;7.668;2024-03-06T10:54:08;2.43;;;2.23;;
2388;SDS011;1205;47.984;7.668;2024-03-06T10:56:35;2.57;;;2.00;;
2388;SDS011;1205;47.984;7.668;2024-03-06T10:59:08;2.80;;;2.60;;
2388;SDS011;1205;47.984;7.668;2024-03-06T11:01:37;6.50;;;2.60;;
2388;SDS011;1205;47.984;7.668;2024-03-06T11:04:05;1.67;;;1.60;;
2388;SDS011;1205;47.984;7.668;2024-03-06T11:06:32;2.20;;;2.00;;
2388;SDS011;1205;47.984;7.668;2024-03-06T11:08:59;4.20;;;1.93;;
2388;SDS011;1205;47.984;7.668;2024-03-06T11:11:26;2.30;;;2.17;;
2388;SDS011;1205;47.984;7.668;2024-03-06T11:13:55;2.73;;;2.00;;
2388;SDS011;1205;47.984;7.668;2024-03-06T11:16:28;1.77;;;1.67;;
2388;SDS011;1205;47.984;7.668;2024-03-06T11:19:04;1.73;;;1.63;;
2388;SDS011;1205;47.984;7.668;2024-03-06T11:21:34;2.63;;;1.70;;
2388;SDS011;1205;47.984;7.668;2024-03-06T11:24:16;1.97;;;1.87;;
2388;SDS011;1205;47.984;7.668;2024-03-06T11:26:43;1.90;;;1.80;;
2388;SDS011;1205;47.984;7.668;2024-03-06T11:29:19;3.07;;;1.53;;
2388;SDS011;1205;47.984;7.668;2024-03-06T11:34:27;1.83;;;1.70;;
2388;SDS011;1205;47.984;7.668;2024-03-06T11:36:58;2.40;;;1.33;;
2388;SDS011;1205;47.984;7.668;2024-03-06T11:39:24;2.50;;;1.40;;
2388;SDS011;1205;47.984;7.668;2024-03-06T11:41:52;2.20;;;1.67;;
2388;SDS011;1205;47.984;7.668;2024-03-06T11:44:21;3.50;;;1.67;;
2388;SDS011;1205;47.984;7.668;2024-03-06T11:46:49;1.40;;;1.30;;
2388;SDS011;1205;47.984;7.668;2024-03-06T11:49:22;2.10;;;1.40;;
2388;SDS011;1205;47.984;7.668;2024-03-06T11:51:54;3.40;;;2.00;;
2388;SDS011;1205;47.984;7.668;2024-03-06T11:54:22;1.60;;;1.50;;
2388;SDS011;1205;47.984;7.668;2024-03-06T11:56:49;3.50;;;1.57;;
2388;SDS011;1205;47.984;7.668;2024-03-06T11:59:16;2.63;;;0.90;;
2388;SDS011;1205;47.984;7.668;2024-03-06T12:01:42;1.90;;;1.50;;
2388;SDS011;1205;47.984;7.668;2024-03-06T12:04:08;1.87;;;1.07;;
2388;SDS011;1205;47.984;7.668;2024-03-06T12:06:33;1.47;;;1.37;;
2388;SDS011;1205;47.984;7.668;2024-03-06T12:09:00;2.00;;;1.47;;
2388;SDS011;1205;47.984;7.668;2024-03-06T12:11:25;2.50;;;2.20;;
2388;SDS011;1205;47.984;7.668;2024-03-06T12:13:53;1.50;;;1.40;;
2388;SDS011;1205;47.984;7.668;2024-03-06T12:16:19;1.23;;;1.10;;
2388;SDS011;1205;47.984;7.668;2024-03-06T12:18:44;1.10;;;1.10;;
2388;SDS011;1205;47.984;7.668;2024-03-06T12:21:11;2.10;;;1.57;;
2388;SDS011;1205;47.984;7.668;2024-03-06T12:23:36;3.30;;;1.83;;
2388;SDS011;1205;47.984;7.668;2024-03-06T12:26:03;3.43;;;1.77;;
2388;SDS011;1205;47.984;7.668;2024-03-06T12:28:29;4.23;;;2.07;;
2388;SDS011;1205;47.984;7.668;2024-03-06T12:30:55;3.83;;;1.90;;
2388;SDS011;1205;47.984;7.668;2024-03-06T12:33:22;3.13;;;1.70;;
2388;SDS011;1205;47.984;7.668;2024-03-06T12:35:48;1.87;;;1.53;;
2388;SDS011;1205;47.984;7.668;2024-03-06T12:38:24;3.90;;;1.80;;
2388;SDS011;1205;47.984;7.668;2024-03-06T12:40:54;2.80;;;1.90;;
2388;SDS011;1205;47.984;7.668;2024-03-06T12:43:20;1.40;;;1.40;;
2388;SDS011;1205;47.984;7.668;2024-03-06T12:45:45;1.90;;;1.30;;
2388;SDS011;1205;47.984;7.668;2024-03-06T12:48:11;2.60;;;1.23;;
2388;SDS011;1205;47.984;7.668;2024-03-06T12:50:37;3.70;;;1.63;;
2388;SDS011;1205;47.984;7.668;2024-03-06T12:53:03;1.33;;;1.23;;
2388;SDS011;1205;47.984;7.668;2024-03-06T12:55:32;3.50;;;1.93;;
2388;SDS011;1205;47.984;7.668;2024-03-06T12:57:57;2.60;;;1.23;;
2388;SDS011;1205;47.984;7.668;2024-03-06T13:00:23;5.00;;;2.83;;
2388;SDS011;1205;47.984;7.668;2024-03-06T13:02:49;2.30;;;1.33;;
2388;SDS011;1205;47.984;7.668;2024-03-06T13:05:18;1.47;;;1.37;;
2388;SDS011;1205;47.984;7.668;2024-03-06T13:07:44;2.83;;;1.70;;
2388;SDS011;1205;47.984;7.668;2024-03-06T13:10:10;2.70;;;1.50;;
2388;SDS011;1205;47.984;7.668;2024-03-06T13:12:39;2.13;;;2.03;;
2388;SDS011;1205;47.984;7.668;2024-03-06T13:15:05;1.30;;;1.20;;
2388;SDS011;1205;47.984;7.668;2024-03-06T13:17:34;4.20;;;1.17;;
2388;SDS011;1205;47.984;7.668;2024-03-06T13:19:59;67.63;;;3.53;;
2388;SDS011;1205;47.984;7.668;2024-03-06T13:22:26;1.13;;;1.03;;
2388;SDS011;1205;47.984;7.668;2024-03-06T13:24:51;3.30;;;1.70;;
2388;SDS011;1205;47.984;7.668;2024-03-06T13:27:17;5.23;;;1.30;;
2388;SDS011;1205;47.984;7.668;2024-03-06T13:29:42;6.73;;;1.20;;
2388;SDS011;1205;47.984;7.668;2024-03-06T13:32:08;3.70;;;1.30;;
2388;SDS011;1205;47.984;7.668;2024-03-06T13:34:34;1.83;;;1.30;;
2388;SDS011;1205;47.984;7.668;2024-03-06T13:36:59;1.67;;;1.20;;
2388;SDS011;1205;47.984;7.668;2024-03-06T13:39:25;1.17;;;1.10;;
2388;SDS011;1205;47.984;7.668;2024-03-06T13:41:50;1.30;;;1.20;;
2388;SDS011;1205;47.984;7.668;2024-03-06T13:44:17;1.53;;;1.30;;
2388;SDS011;1205;47.984;7.668;2024-03-06T13:46:43;1.70;;;1.13;;
2388;SDS011;1205;47.984;7.668;2024-03-06T13:49:33;1.83;;;1.07;;
2388;SDS011;1205;47.984;7.668;2024-03-06T13:52:01;3.30;;;1.30;;
2388;SDS011;1205;47.984;7.668;2024-03-06T13:54:27;2.70;;;1.40;;
2388;SDS011;1205;47.984;7.668;2024-03-06T13:56:52;2.50;;;1.90;;
2388;SDS011;1205;47.984;7.668;2024-03-06T13:59:26;2.30;;;1.93;;
2388;SDS011;1205;47.984;7.668;2024-03-06T14:01:52;6.60;;;4.00;;
2388;SDS011;1205;47.984;7.668;2024-03-06T14:04:18;7.13;;;3.00;;
2388;SDS011;1205;47.984;7.668;2024-03-06T14:06:44;7.50;;;2.70;;
2388;SDS011;1205;47.984;7.668;2024-03-06T14:09:09;4.03;;;2.53;;
2388;SDS011;1205;47.984;7.668;2024-03-06T14:11:35;3.40;;;2.03;;
2388;SDS011;1205;47.984;7.668;2024-03-06T14:14:00;2.70;;;1.57;;
2388;SDS011;1205;47.984;7.668;2024-03-06T14:16:26;2.50;;;2.30;;
2388;SDS011;1205;47.984;7.668;2024-03-06T14:18:52;1.87;;;1.40;;
2388;SDS011;1205;47.984;7.668;2024-03-06T14:21:18;2.50;;;2.27;;
2388;SDS011;1205;47.984;7.668;2024-03-06T14:23:44;2.90;;;1.90;;
2388;SDS011;1205;47.984;7.668;2024-03-06T14:26:09;3.50;;;2.80;;
2388;SDS011;1205;47.984;7.668;2024-03-06T14:28:35;2.40;;;2.03;;
2388;SDS011;1205;47.984;7.668;2024-03-06T14:31:00;2.03;;;1.83;;
2388;SDS011;1205;47.984;7.668;2024-03-06T14:33:26;1.80;;;1.67;;
2388;SDS011;1205;47.984;7.668;2024-03-06T14:35:52;4.67;;;1.77;;
2388;SDS011;1205;47.984;7.668;2024-03-06T14:38:17;2.37;;;2.27;;
2388;SDS011;1205;47.984;7.668;2024-03-06T14:40:43;3.70;;;3.40;;
2388;SDS011;1205;47.984;7.668;2024-03-06T14:43:09;4.00;;;3.70;;
2388;SDS011;1205;47.984;7.668;2024-03-06T14:45:35;3.00;;;2.80;;
2388;SDS011;1205;47.984;7.668;2024-03-06T14:48:06;10.57;;;1.97;;
2388;SDS011;1205;47.984;7.668;2024-03-06T14:50:35;3.23;;;2.47;;
2388;SDS011;1205;47.984;7.668;2024-03-06T14:53:01;2.17;;;1.73;;
2388;SDS011;1205;47.984;7.668;2024-03-06T14:55:26;5.53;;;2.00;;
2388;SDS011;1205;47.984;7.668;2024-03-06T14:57:52;4.10;;;2.33;;
2388;SDS011;1205;47.984;7.668;2024-03-06T15:00:18;7.63;;;4.23;;
2388;SDS011;1205;47.984;7.668;2024-03-06T15:02:46;119.27;;;49.77;;
2388;SDS011;1205;47.984;7.668;2024-03-06T15:05:12;86.60;;;37.60;;
2388;SDS011;1205;47.984;7.668;2024-03-06T15:07:38;38.77;;;17.30;;
2388;SDS011;1205;47.984;7.668;2024-03-06T15:10:07;8.30;;;4.87;;
2388;SDS011;1205;47.984;7.668;2024-03-06T15:12:33;14.07;;;7.00;;
2388;SDS011;1205;47.984;7.668;2024-03-06T15:15:00;7.33;;;6.27;;
2388;SDS011;1205;47.984;7.668;2024-03-06T15:17:27;5.03;;;4.50;;